createdAt,value
2019-04-01T00:01:03.497Z,24.17
2019-04-01T00:03:35.022Z,29.40
2019-04-01T00:06:06.465Z,25.77
2019-04-01T00:08:39.266Z,27.90
2019-04-01T00:11:10.596Z,24.77
2019-04-01T00:13:43.270Z,33.43
2019-04-01T00:16:15.951Z,23.60
2019-04-01T00:19:02.066Z,37.33
2019-04-01T00:21:22.531Z,30.57
2019-04-01T00:23:55.224Z,27.23
2019-04-01T00:26:27.901Z,28.10
2019-04-01T00:28:59.369Z,32.60
2019-04-01T00:31:32.872Z,25.27
2019-04-01T00:34:04.405Z,30.47
2019-04-01T00:36:35.852Z,33.13
2019-04-01T00:39:08.535Z,25.47
2019-04-01T00:41:42.858Z,23.37
2019-04-01T00:44:14.215Z,23.73
2019-04-01T00:46:46.877Z,24.47
2019-04-01T00:49:19.577Z,31.73
2019-04-01T00:51:52.234Z,27.73
2019-04-01T00:54:26.764Z,23.00
2019-04-01T00:56:58.210Z,22.30
2019-04-01T00:59:31.833Z,26.20
2019-04-01T01:02:03.268Z,24.57
2019-04-01T01:04:34.792Z,26.57
2019-04-01T01:07:07.571Z,31.03
2019-04-01T01:09:39.813Z,29.47
2019-04-01T01:12:11.235Z,28.70
2019-04-01T01:14:42.840Z,28.73
2019-04-01T01:17:16.278Z,26.40
2019-04-01T01:19:47.754Z,22.13
2019-04-01T01:22:19.189Z,28.83
2019-04-01T01:24:50.647Z,25.23
2019-04-01T01:27:22.081Z,26.07
2019-04-01T01:29:54.777Z,27.23
2019-04-01T01:32:26.208Z,28.47
2019-04-01T01:34:57.693Z,32.53
2019-04-01T01:37:29.286Z,28.23
2019-04-01T01:40:01.794Z,27.77
2019-04-01T01:42:34.783Z,29.53
2019-04-01T01:45:07.942Z,27.03
2019-04-01T01:47:40.455Z,25.10
2019-04-01T01:50:12.829Z,28.33
2019-04-01T01:52:44.357Z,28.30
2019-04-01T01:55:18.213Z,28.50
2019-04-01T01:57:49.627Z,23.60
2019-04-01T02:00:23.584Z,25.90
2019-04-01T02:02:54.995Z,18.20
2019-04-01T02:05:26.442Z,23.67
2019-04-01T02:07:59.135Z,24.43
2019-04-01T02:10:30.568Z,21.37
2019-04-01T02:13:03.273Z,24.47
2019-04-01T02:15:35.624Z,17.33
2019-04-01T02:18:08.328Z,21.93
2019-04-01T02:20:41.917Z,21.73
2019-04-01T02:23:14.597Z,15.47
2019-04-01T02:25:47.273Z,19.83
2019-04-01T02:28:19.959Z,20.30
2019-04-01T02:30:51.399Z,25.03
2019-04-01T02:33:24.405Z,16.03
2019-04-01T02:35:57.989Z,15.43
2019-04-01T02:38:29.460Z,17.87
2019-04-01T02:41:00.921Z,14.47
2019-04-01T02:43:33.572Z,16.17
2019-04-01T02:46:05.100Z,20.10
2019-04-01T02:48:37.715Z,18.60
2019-04-01T02:51:10.689Z,18.40
2019-04-01T02:53:43.373Z,15.60
2019-04-01T02:56:16.049Z,20.53
2019-04-01T02:58:48.750Z,19.13
2019-04-01T03:01:21.111Z,18.43
2019-04-01T03:03:53.790Z,39.87
2019-04-01T03:06:25.241Z,25.67
2019-04-01T03:08:58.073Z,24.93
2019-04-01T03:11:31.340Z,34.40
2019-04-01T03:14:04.059Z,30.83
2019-04-01T03:16:36.582Z,25.70
2019-04-01T03:19:08.194Z,33.27
2019-04-01T03:21:40.703Z,27.00
2019-04-01T03:24:13.381Z,25.43
2019-04-01T03:26:46.985Z,23.87
2019-04-01T03:29:18.432Z,32.20
2019-04-01T03:31:49.891Z,27.20
2019-04-01T03:34:21.832Z,31.87
2019-04-01T03:36:57.084Z,29.63
2019-04-01T03:39:29.773Z,24.57
2019-04-01T03:42:03.996Z,23.87
2019-04-01T03:44:36.665Z,21.57
2019-04-01T03:47:08.423Z,34.23
2019-04-01T03:49:41.118Z,24.10
2019-04-01T03:52:12.565Z,25.87
2019-04-01T03:54:45.245Z,40.93
2019-04-01T03:57:17.919Z,33.73
2019-04-01T03:59:49.383Z,23.33
2019-04-01T04:02:20.823Z,32.50
2019-04-01T04:04:53.517Z,26.20
2019-04-01T04:07:26.494Z,72.30
2019-04-01T04:09:59.168Z,58.70
2019-04-01T04:12:31.854Z,40.00
2019-04-01T04:15:04.302Z,33.70
2019-04-01T04:17:35.666Z,34.03
2019-04-01T04:20:07.208Z,23.90
2019-04-01T04:22:39.808Z,26.00
2019-04-01T04:25:12.482Z,19.57
2019-04-01T04:27:46.083Z,23.03
2019-04-01T04:30:19.833Z,26.40
2019-04-01T04:32:51.164Z,46.83
2019-04-01T04:35:23.511Z,48.33
2019-04-01T04:37:54.961Z,29.47
2019-04-01T04:40:27.641Z,37.23
2019-04-01T04:43:00.320Z,51.43
2019-04-01T04:45:32.725Z,35.70
2019-04-01T04:48:06.600Z,60.23
2019-04-01T04:50:38.060Z,55.20
2019-04-01T04:53:11.978Z,61.07
2019-04-01T04:55:43.414Z,60.13
2019-04-01T04:58:17.561Z,76.40
2019-04-01T05:00:49.094Z,56.03
2019-04-01T05:03:21.450Z,69.23
2019-04-01T05:05:53.357Z,78.17
2019-04-01T05:08:24.679Z,51.23
2019-04-01T05:10:58.887Z,42.43
2019-04-01T05:13:31.580Z,74.77
2019-04-01T05:16:03.332Z,108.63
2019-04-01T05:18:35.109Z,83.23
2019-04-01T05:21:06.552Z,67.17
2019-04-01T05:23:37.995Z,82.03
2019-04-01T05:26:09.921Z,57.53
2019-04-01T05:28:42.454Z,58.50
2019-04-01T05:31:14.715Z,71.67
2019-04-01T05:33:55.334Z,54.20
2019-04-01T05:36:20.456Z,75.63
2019-04-01T05:38:54.983Z,74.67
2019-04-01T05:41:26.471Z,86.77
2019-04-01T05:44:02.127Z,49.40
2019-04-01T05:46:33.041Z,47.77
2019-04-01T05:49:04.478Z,44.67
2019-04-01T05:51:35.929Z,37.77
2019-04-01T05:54:08.365Z,37.97
2019-04-01T05:56:41.052Z,40.37
2019-04-01T05:59:12.440Z,41.27
2019-04-01T06:01:46.757Z,42.57
2019-04-01T06:04:18.117Z,35.57
2019-04-01T06:06:49.551Z,35.47
2019-04-01T06:09:21.095Z,36.07
2019-04-01T06:11:53.697Z,36.03
2019-04-01T06:14:25.034Z,33.73
2019-04-01T06:16:56.361Z,28.17
2019-04-01T06:19:29.024Z,26.77
2019-04-01T06:22:00.451Z,29.87
2019-04-01T06:24:31.893Z,25.13
2019-04-01T06:27:03.313Z,30.27
2019-04-01T06:29:34.862Z,27.03
2019-04-01T06:32:06.222Z,28.17
2019-04-01T06:34:51.927Z,32.10
2019-04-01T06:37:11.913Z,29.93
2019-04-01T06:39:43.355Z,24.60
2019-04-01T06:42:14.793Z,23.10
2019-04-01T06:44:46.275Z,22.27
2019-04-01T06:47:17.680Z,29.10
2019-04-01T06:49:51.329Z,30.63
2019-04-01T06:52:23.960Z,23.77
2019-04-01T06:54:56.673Z,24.07
2019-04-01T06:57:29.023Z,28.10
2019-04-01T07:00:02.652Z,27.43
2019-04-01T07:02:34.080Z,31.73
2019-04-01T07:05:06.873Z,37.53
2019-04-01T07:07:38.217Z,32.83
2019-04-01T07:10:09.688Z,25.57
2019-04-01T07:12:41.124Z,27.83
2019-04-01T07:15:12.606Z,33.80
2019-04-01T07:17:44.033Z,21.43
2019-04-01T07:20:15.482Z,17.33
2019-04-01T07:22:48.554Z,12.50
2019-04-01T07:25:21.230Z,16.47
2019-04-01T07:27:52.575Z,21.00
2019-04-01T07:30:24.072Z,18.43
2019-04-01T07:32:55.509Z,15.77
2019-04-01T07:35:26.953Z,15.47
2019-04-01T07:37:58.398Z,22.47
2019-04-01T07:40:29.897Z,39.40
2019-04-01T07:43:01.623Z,11.07
2019-04-01T07:45:39.011Z,14.57
2019-04-01T07:48:12.813Z,16.17
2019-04-01T07:50:44.994Z,11.13
2019-04-01T07:53:17.542Z,23.10
2019-04-01T07:55:50.242Z,17.73
2019-04-01T07:58:21.678Z,10.20
2019-04-01T08:00:53.148Z,12.77
2019-04-01T08:03:29.478Z,13.77
2019-04-01T08:06:03.434Z,18.20
2019-04-01T08:08:34.865Z,12.53
2019-04-01T08:11:06.197Z,17.23
2019-04-01T08:13:39.054Z,13.13
2019-04-01T08:16:10.440Z,12.40
2019-04-01T08:18:43.130Z,19.73
2019-04-01T08:21:15.490Z,13.03
2019-04-01T08:23:46.949Z,10.53
2019-04-01T08:26:18.491Z,13.13
2019-04-01T08:28:51.139Z,9.40
2019-04-01T08:31:22.552Z,17.83
2019-04-01T08:33:54.062Z,7.30
2019-04-01T08:36:26.720Z,6.43
2019-04-01T08:38:59.374Z,12.30
2019-04-01T08:41:31.220Z,7.40
2019-04-01T08:44:03.376Z,10.47
2019-04-01T08:46:35.573Z,7.90
2019-04-01T08:49:08.037Z,8.43
2019-04-01T08:51:41.269Z,14.23
2019-04-01T08:54:13.628Z,11.00
2019-04-01T08:56:46.855Z,5.60
2019-04-01T08:59:19.868Z,6.83
2019-04-01T09:01:55.074Z,4.40
2019-04-01T09:04:28.208Z,4.27
2019-04-01T09:07:01.377Z,18.70
2019-04-01T09:09:32.991Z,8.80
2019-04-01T09:12:04.880Z,4.03
2019-04-01T09:14:37.610Z,3.47
2019-04-01T09:17:09.053Z,3.20
2019-04-01T09:19:45.094Z,2.97
2019-04-01T09:22:16.583Z,7.53
2019-04-01T09:24:48.028Z,3.77
2019-04-01T09:27:19.786Z,2.10
2019-04-01T09:29:51.397Z,3.53
2019-04-01T09:32:24.076Z,4.50
2019-04-01T09:34:57.679Z,2.50
2019-04-01T09:37:33.693Z,3.80
2019-04-01T09:40:07.972Z,2.80
2019-04-01T09:42:41.645Z,3.23
2019-04-01T09:45:15.164Z,3.83
2019-04-01T09:47:48.414Z,5.97
2019-04-01T09:50:20.035Z,5.10
2019-04-01T09:52:54.356Z,9.07
2019-04-01T09:55:25.891Z,5.27
2019-04-01T09:57:58.228Z,4.40
2019-04-01T10:00:33.077Z,10.07
2019-04-01T10:03:05.759Z,5.70
2019-04-01T10:05:38.754Z,5.10
2019-04-01T10:08:11.441Z,5.27
2019-04-01T10:10:46.540Z,3.00
2019-04-01T10:13:19.259Z,1.90
2019-04-01T10:15:50.707Z,3.63
2019-04-01T10:18:22.185Z,3.40
2019-04-01T10:20:56.059Z,5.53
2019-04-01T10:23:27.629Z,3.30
2019-04-01T10:25:59.015Z,6.20
2019-04-01T10:28:32.118Z,4.00
2019-04-01T10:31:05.403Z,4.37
2019-04-01T10:33:38.050Z,5.13
2019-04-01T10:36:10.908Z,4.00
2019-04-01T10:38:42.558Z,3.70
2019-04-01T10:41:14.140Z,6.67
2019-04-01T10:43:46.672Z,4.53
2019-04-01T10:46:20.015Z,4.80
2019-04-01T10:48:51.568Z,8.03
2019-04-01T10:51:25.156Z,5.43
2019-04-01T10:54:00.650Z,7.10
2019-04-01T10:56:35.676Z,2.43
2019-04-01T10:59:06.281Z,2.67
2019-04-01T11:01:38.962Z,3.23
2019-04-01T11:04:17.288Z,3.03
2019-04-01T11:06:48.646Z,3.10
2019-04-01T11:09:37.409Z,3.30
2019-04-01T11:11:56.232Z,2.77
2019-04-01T11:14:27.569Z,3.03
2019-04-01T11:17:17.514Z,5.37
2019-04-01T11:19:48.961Z,4.87
2019-04-01T11:22:20.372Z,11.10
2019-04-01T11:24:51.807Z,5.93
2019-04-01T11:27:23.717Z,7.07
2019-04-01T11:29:56.246Z,6.17
2019-04-01T11:32:28.977Z,3.47
2019-04-01T11:35:01.658Z,4.40
2019-04-01T11:37:34.316Z,7.43
2019-04-01T11:40:11.359Z,10.40
2019-04-01T11:42:42.158Z,3.57
2019-04-01T11:45:16.524Z,2.90
2019-04-01T11:47:48.127Z,4.13
2019-04-01T11:50:19.562Z,4.70
2019-04-01T11:52:51.955Z,3.80
2019-04-01T11:55:23.797Z,3.13
2019-04-01T11:57:56.343Z,6.87
2019-04-01T12:00:28.718Z,6.53
2019-04-01T12:03:02.686Z,4.17
2019-04-01T12:05:38.491Z,6.73
2019-04-01T12:08:09.850Z,6.27
2019-04-01T12:10:41.315Z,2.23
2019-04-01T12:13:19.762Z,3.60
2019-04-01T12:15:51.297Z,2.20
2019-04-01T12:18:26.430Z,3.23
2019-04-01T12:21:01.219Z,4.77
2019-04-01T12:23:32.690Z,2.63
2019-04-01T12:26:15.151Z,3.67
2019-04-01T12:28:38.643Z,3.80
2019-04-01T12:31:15.755Z,12.40
2019-04-01T12:33:54.163Z,8.47
2019-04-01T12:36:25.602Z,4.77
2019-04-01T12:39:01.633Z,6.80
2019-04-01T12:41:36.941Z,3.87
2019-04-01T12:44:11.255Z,3.97
2019-04-01T12:46:43.381Z,3.57
2019-04-01T12:49:14.906Z,24.50
2019-04-01T12:51:59.406Z,12.10
2019-04-01T12:54:32.106Z,3.50
2019-04-01T12:57:11.439Z,34.83
2019-04-01T12:59:45.809Z,16.27
2019-04-01T13:02:22.077Z,71.27
2019-04-01T13:04:56.489Z,9.33
2019-04-01T13:07:33.557Z,40.47
2019-04-01T13:10:07.756Z,53.67
2019-04-01T13:12:39.699Z,10.73
2019-04-01T13:15:12.598Z,40.43
2019-04-01T13:17:45.647Z,19.07
2019-04-01T13:20:17.100Z,22.87
2019-04-01T13:22:49.250Z,16.80
2019-04-01T13:25:27.261Z,39.97
2019-04-01T13:28:02.866Z,18.83
2019-04-01T13:30:34.288Z,20.70
2019-04-01T13:33:05.730Z,23.10
2019-04-01T13:35:40.016Z,10.13
2019-04-01T13:38:12.919Z,21.97
2019-04-01T13:40:47.836Z,13.40
2019-04-01T13:43:20.444Z,8.97
2019-04-01T13:45:54.663Z,35.33
2019-04-01T13:48:27.338Z,77.73
2019-04-01T13:51:01.605Z,7.10
2019-04-01T13:53:32.995Z,30.27
2019-04-01T13:56:06.005Z,10.47
2019-04-01T13:58:39.309Z,15.10
2019-04-01T14:01:14.052Z,5.73
2019-04-01T14:03:45.583Z,6.97
2019-04-01T14:06:17.323Z,34.13
2019-04-01T14:08:51.159Z,34.57
2019-04-01T14:11:25.760Z,19.63
2019-04-01T14:14:01.950Z,11.37
2019-04-01T14:16:36.354Z,13.37
2019-04-01T14:19:07.802Z,12.80
2019-04-01T14:21:39.239Z,8.17
2019-04-01T14:24:14.184Z,6.10
2019-04-01T14:26:50.098Z,12.97
2019-04-01T14:29:21.594Z,9.93
2019-04-01T14:31:53.025Z,8.40
2019-04-01T14:34:30.174Z,13.23
2019-04-01T14:37:12.358Z,14.83
2019-04-01T14:39:49.092Z,56.13
2019-04-01T14:42:22.481Z,16.13
2019-04-01T14:44:58.922Z,12.90
2019-04-01T14:47:49.960Z,9.37
2019-04-01T14:50:10.996Z,10.00
2019-04-01T14:52:43.395Z,10.80
2019-04-01T14:55:15.728Z,17.80
2019-04-01T14:57:54.804Z,11.43
2019-04-01T15:00:20.805Z,8.70
2019-04-01T15:02:52.231Z,14.53
2019-04-01T15:05:23.685Z,15.10
2019-04-01T15:07:56.368Z,12.60
2019-04-01T15:10:28.728Z,17.47
2019-04-01T15:13:05.744Z,11.73
2019-04-01T15:15:43.893Z,21.90
2019-04-01T15:18:22.063Z,6.17
2019-04-01T15:21:06.263Z,19.23
2019-04-01T15:23:54.153Z,7.37
2019-04-01T15:26:43.695Z,11.10
2019-04-01T15:29:15.256Z,13.23
2019-04-01T15:31:46.699Z,9.27
2019-04-01T15:34:18.621Z,10.03
2019-04-01T15:36:50.830Z,19.13
2019-04-01T15:39:23.503Z,13.30
2019-04-01T15:41:56.221Z,11.07
2019-04-01T15:44:29.321Z,9.07
2019-04-01T15:47:04.494Z,5.87
2019-04-01T15:49:36.391Z,14.40
2019-04-01T15:52:07.837Z,7.80
2019-04-01T15:54:39.303Z,10.13
2019-04-01T15:57:15.073Z,15.37
2019-04-01T15:59:45.860Z,24.00
2019-04-01T16:02:17.619Z,12.80
2019-04-01T16:04:50.722Z,20.73
2019-04-01T16:07:22.577Z,29.83
2019-04-01T16:09:59.649Z,40.37
2019-04-01T16:12:32.640Z,23.17
2019-04-01T16:15:09.056Z,15.27
2019-04-01T16:17:42.287Z,18.80
2019-04-01T16:20:14.223Z,36.00
2019-04-01T16:22:46.743Z,27.83
2019-04-01T16:25:18.219Z,21.80
2019-04-01T16:27:50.880Z,19.10
2019-04-01T16:30:23.562Z,27.10
2019-04-01T16:32:56.241Z,46.77
2019-04-01T16:35:27.789Z,25.30
2019-04-01T16:38:00.692Z,42.57
2019-04-01T16:40:33.358Z,28.67
2019-04-01T16:43:06.065Z,44.17
2019-04-01T16:45:39.074Z,53.77
2019-04-01T16:48:10.869Z,36.67
2019-04-01T16:50:43.935Z,38.90
2019-04-01T16:53:17.511Z,27.30
2019-04-01T16:55:48.831Z,41.67
2019-04-01T16:58:21.673Z,44.07
2019-04-01T17:00:55.826Z,37.40
2019-04-01T17:03:27.781Z,44.40
2019-04-01T17:06:00.471Z,69.77
2019-04-01T17:08:34.383Z,48.83
2019-04-01T17:11:06.980Z,59.70
2019-04-01T17:13:38.527Z,75.97
2019-04-01T17:16:09.954Z,69.10
2019-04-01T17:18:42.656Z,30.20
2019-04-01T17:21:14.095Z,49.13
2019-04-01T17:23:47.528Z,54.60
2019-04-01T17:26:19.233Z,58.40
2019-04-01T17:28:50.629Z,60.00
2019-04-01T17:31:24.852Z,37.07
2019-04-01T17:33:56.283Z,89.93
2019-04-01T17:36:29.345Z,66.27
2019-04-01T17:39:02.287Z,165.20
2019-04-01T17:41:35.856Z,124.63
2019-04-01T17:44:07.318Z,95.27
2019-04-01T17:46:38.761Z,79.87
2019-04-01T17:49:10.208Z,108.23
2019-04-01T17:51:41.638Z,104.73
2019-04-01T17:54:14.340Z,64.77
2019-04-01T17:56:47.165Z,84.87
2019-04-01T17:59:19.098Z,67.60
2019-04-01T18:01:50.541Z,62.97
2019-04-01T18:04:23.286Z,83.27
2019-04-01T18:06:58.254Z,59.73
2019-04-01T18:09:31.183Z,58.67
2019-04-01T18:12:02.856Z,36.23
2019-04-01T18:14:36.328Z,46.13
2019-04-01T18:17:07.856Z,32.17
2019-04-01T18:19:39.330Z,46.00
2019-04-01T18:22:12.370Z,58.23
2019-04-01T18:24:43.819Z,33.10
2019-04-01T18:27:15.456Z,18.47
2019-04-01T18:29:46.972Z,41.80
2019-04-01T18:32:18.412Z,54.23
2019-04-01T18:34:49.881Z,38.83
2019-04-01T18:37:21.491Z,56.30
2019-04-01T18:39:53.076Z,243.60
2019-04-01T18:42:26.672Z,76.57
2019-04-01T18:44:57.473Z,88.20
2019-04-01T18:47:28.941Z,116.67
2019-04-01T18:50:02.149Z,48.67
2019-04-01T18:52:34.443Z,56.43
2019-04-01T18:55:07.991Z,96.07
2019-04-01T18:57:40.581Z,66.87
2019-04-01T19:00:12.102Z,27.40
2019-04-01T19:02:43.553Z,38.47
2019-04-01T19:05:14.932Z,38.17
2019-04-01T19:07:46.457Z,42.07
2019-04-01T19:10:17.897Z,43.13
2019-04-01T19:13:05.084Z,33.90
2019-04-01T19:15:28.455Z,42.23
2019-04-01T19:18:05.662Z,30.47
2019-04-01T19:20:38.095Z,43.33
2019-04-01T19:23:16.266Z,41.93
2019-04-01T19:25:49.908Z,36.97
2019-04-01T19:28:25.061Z,27.03
2019-04-01T19:30:56.526Z,40.37
2019-04-01T19:33:27.934Z,92.23
2019-04-01T19:36:01.396Z,136.07
2019-04-01T19:38:34.354Z,201.10
2019-04-01T19:41:08.007Z,244.10
2019-04-01T19:43:39.720Z,179.87
2019-04-01T19:46:14.452Z,179.90
2019-04-01T19:48:49.232Z,198.37
2019-04-01T19:51:30.527Z,106.43
2019-04-01T19:54:04.033Z,136.80
2019-04-01T19:56:42.660Z,135.53
2019-04-01T19:59:19.485Z,147.83
2019-04-01T20:01:54.478Z,65.40
2019-04-01T20:04:32.910Z,82.27
2019-04-01T20:07:05.415Z,82.87
2019-04-01T20:09:41.815Z,57.93
2019-04-01T20:12:16.743Z,36.17
2019-04-01T20:14:48.360Z,45.03
2019-04-01T20:17:23.701Z,111.93
2019-04-01T20:20:06.818Z,80.77
2019-04-01T20:22:37.506Z,43.90
2019-04-01T20:25:09.485Z,73.17
2019-04-01T20:27:43.221Z,46.37
2019-04-01T20:30:15.816Z,34.77
2019-04-01T20:32:49.457Z,35.27
2019-04-01T20:35:24.121Z,36.93
2019-04-01T20:37:57.342Z,43.37
2019-04-01T20:40:40.311Z,34.10
2019-04-01T20:43:09.831Z,45.70
2019-04-01T20:45:41.845Z,56.67
2019-04-01T20:48:22.740Z,55.77
2019-04-01T20:50:57.557Z,48.97
2019-04-01T20:53:37.319Z,55.03
2019-04-01T20:56:14.665Z,51.30
2019-04-01T20:58:51.752Z,54.87
2019-04-01T21:01:24.033Z,67.63
2019-04-01T21:03:58.789Z,25.30
2019-04-01T21:06:31.918Z,28.63
2019-04-01T21:09:11.490Z,23.27
2019-04-01T21:11:44.704Z,28.97
2019-04-01T21:14:16.139Z,22.10
2019-04-01T21:16:49.748Z,27.13
2019-04-01T21:19:22.440Z,28.70
2019-04-01T21:21:57.067Z,29.53
2019-04-01T21:24:29.686Z,44.50
2019-04-01T21:27:02.946Z,36.97
2019-04-01T21:29:37.523Z,32.40
2019-04-01T21:32:16.151Z,32.53
2019-04-01T21:34:55.414Z,29.63
2019-04-01T21:37:29.301Z,29.67
2019-04-01T21:40:00.836Z,31.73
2019-04-01T21:42:32.212Z,32.50
2019-04-01T21:45:09.828Z,29.93
2019-04-01T21:47:41.680Z,40.40
2019-04-01T21:50:17.170Z,30.90
2019-04-01T21:52:51.255Z,37.57
2019-04-01T21:55:22.681Z,33.97
2019-04-01T21:57:55.359Z,33.30
2019-04-01T22:00:29.674Z,32.50
2019-04-01T22:03:04.540Z,41.20
2019-04-01T22:05:36.641Z,35.37
2019-04-01T22:08:10.406Z,43.00
2019-04-01T22:10:41.826Z,45.60
2019-04-01T22:13:13.290Z,42.73
2019-04-01T22:15:44.725Z,31.50
2019-04-01T22:18:19.342Z,33.67
2019-04-01T22:20:52.252Z,27.73
2019-04-01T22:23:25.861Z,21.87
2019-04-01T22:25:59.012Z,26.23
2019-04-01T22:28:30.912Z,25.23
2019-04-01T22:31:03.591Z,26.33
2019-04-01T22:33:36.251Z,21.20
2019-04-01T22:36:07.713Z,29.10
2019-04-01T22:38:40.400Z,23.13
2019-04-01T22:41:11.850Z,29.73
2019-04-01T22:43:43.375Z,21.80
2019-04-01T22:46:14.786Z,25.43
2019-04-01T22:48:47.776Z,28.20
2019-04-01T22:51:19.198Z,22.27
2019-04-01T22:53:50.645Z,17.17
2019-04-01T22:56:23.630Z,25.73
2019-04-01T22:58:56.303Z,22.53
2019-04-01T23:01:28.976Z,27.03
2019-04-01T23:04:00.446Z,30.37
2019-04-01T23:06:31.889Z,27.93
2019-04-01T23:09:07.006Z,23.37
2019-04-01T23:11:40.018Z,25.57
2019-04-01T23:14:11.466Z,22.87
2019-04-01T23:16:44.141Z,24.50
2019-04-01T23:19:16.828Z,19.07
2019-04-01T23:21:49.508Z,26.03
2019-04-01T23:24:23.108Z,21.37
2019-04-01T23:26:55.736Z,25.50
2019-04-01T23:29:29.505Z,16.70
2019-04-01T23:32:00.834Z,21.53
2019-04-01T23:34:33.289Z,22.13
2019-04-01T23:37:05.886Z,22.90
2019-04-01T23:39:38.563Z,18.50
2019-04-01T23:42:11.240Z,22.57
2019-04-01T23:44:42.775Z,30.07
2019-04-01T23:47:16.587Z,20.73
2019-04-01T23:49:49.287Z,18.90
2019-04-01T23:52:21.961Z,21.50
2019-04-01T23:54:54.642Z,20.23
2019-04-01T23:57:27.326Z,19.80
